createdAt,value
2017-02-18T10:31:12.265Z,52.72
2017-02-18T10:31:53.670Z,59.23
2017-02-18T10:32:34.249Z,63.01
2017-02-18T10:33:14.858Z,65.09
2017-02-18T10:33:55.463Z,65.73
2017-02-18T10:34:36.059Z,66.58
2017-02-18T10:35:16.695Z,68.1
2017-02-18T10:35:57.315Z,69.24
2017-02-18T10:36:37.996Z,70.67
2017-02-18T10:37:18.619Z,69.81
2017-02-18T10:37:59.219Z,69.21
2017-02-18T10:38:39.852Z,69.78
2017-02-18T10:39:20.887Z,71.3
2017-02-18T10:40:01.714Z,71.39
2017-02-18T10:40:42.654Z,71.2
2017-02-18T10:41:23.579Z,71.39
2017-02-18T10:42:04.251Z,71.23
2017-02-18T10:42:44.895Z,70.95
2017-02-18T10:43:25.499Z,70.44
2017-02-18T10:44:06.111Z,70.57
2017-02-18T10:44:46.736Z,70.76
2017-02-18T10:45:27.475Z,71.9
2017-02-18T10:46:08.137Z,71.04
2017-02-18T10:46:48.780Z,70.86
2017-02-18T10:47:29.444Z,71.43
2017-02-18T10:48:10.324Z,71.14
2017-02-18T10:48:50.992Z,70.76
2017-02-18T10:49:31.602Z,71.33
2017-02-18T10:50:12.207Z,71.43
2017-02-18T10:50:53.597Z,70.73
2017-02-18T10:51:34.254Z,70.92
2017-02-18T10:52:14.892Z,71.48
2017-02-18T10:52:55.524Z,71.96
2017-02-18T10:53:36.140Z,71.67
2017-02-18T10:54:16.774Z,72.15
2017-02-18T10:54:57.405Z,72.15
2017-02-18T10:55:38.010Z,72.15
2017-02-18T10:56:18.695Z,72.15
2017-02-18T10:56:59.311Z,71.67
2017-02-18T10:57:39.935Z,71.86
2017-02-18T10:58:20.577Z,71.2
2017-02-18T10:59:01.192Z,72.25
2017-02-18T10:59:41.846Z,71.9
2017-02-18T11:00:22.481Z,71.39
2017-02-18T11:01:03.100Z,71.39
2017-02-18T11:01:43.944Z,71.86
2017-02-18T11:02:24.589Z,72.34
2017-02-18T11:03:05.261Z,72.15
2017-02-18T11:03:45.936Z,71.86
2017-02-18T11:04:26.533Z,71.86
2017-02-18T11:05:07.131Z,72.81
2017-02-18T11:05:47.746Z,72.85
2017-02-18T11:06:28.367Z,72.66
2017-02-18T11:07:08.962Z,72
2017-02-18T11:07:49.577Z,72.09
2017-02-18T11:08:30.189Z,72.34
2017-02-18T11:09:10.832Z,72.44
2017-02-18T11:09:51.419Z,72.72
2017-02-18T11:10:32.020Z,73.19
2017-02-18T11:11:12.622Z,73.48
2017-02-18T11:11:53.249Z,73.57
2017-02-18T11:12:33.867Z,74.52
2017-02-18T11:13:14.474Z,74.52
2017-02-18T11:13:55.095Z,73.67
2017-02-18T11:14:35.686Z,73.67
2017-02-18T11:15:16.790Z,73.29
2017-02-18T11:15:58.313Z,74.05
2017-02-18T11:16:42.681Z,74.52
2017-02-18T11:17:23.304Z,74.33
2017-02-18T11:18:06.262Z,73.61
2017-02-18T11:18:46.980Z,73.61
2017-02-18T11:19:28.342Z,73.48
2017-02-18T11:20:10.949Z,73.48
2017-02-18T11:20:57.473Z,74.15
2017-02-18T11:21:38.058Z,73.57
2017-02-18T11:22:18.658Z,73.29
2017-02-18T11:22:59.276Z,73.19
2017-02-18T11:23:39.880Z,73.48
2017-02-18T11:24:20.479Z,73.86
2017-02-18T11:25:01.099Z,73.76
2017-02-18T11:25:41.692Z,73.57
2017-02-18T11:26:22.313Z,72.91
2017-02-18T11:27:02.910Z,72.34
2017-02-18T11:27:43.535Z,72.81
2017-02-18T11:28:24.115Z,73.1
2017-02-18T11:29:04.758Z,74.05
2017-02-18T11:29:45.361Z,73.57
2017-02-18T11:30:25.962Z,74.05
2017-02-18T11:31:06.559Z,73
2017-02-18T11:31:47.195Z,73.19
2017-02-18T11:32:27.801Z,73.57
2017-02-18T11:33:08.413Z,74.24
2017-02-18T11:33:49.005Z,73.57
2017-02-18T11:34:29.644Z,73.57
2017-02-18T11:35:10.254Z,74.39
2017-02-18T11:35:50.878Z,74.11
2017-02-18T11:36:31.455Z,74.87
2017-02-18T11:37:12.043Z,74.49
2017-02-18T11:37:52.625Z,75
2017-02-18T11:38:33.208Z,74.62
2017-02-18T11:39:13.786Z,74.05
2017-02-18T11:39:54.369Z,74.71
2017-02-18T11:40:34.975Z,74.05
2017-02-18T11:41:15.576Z,74.05
2017-02-18T11:41:56.181Z,74.62
2017-02-18T11:42:36.761Z,74.43
2017-02-18T11:43:17.378Z,74.62
2017-02-18T11:43:57.975Z,75
2017-02-18T11:44:38.591Z,74.52
2017-02-18T11:45:19.192Z,73.76
2017-02-18T11:45:59.778Z,73.57
2017-02-18T11:46:40.386Z,74.52
2017-02-18T11:47:20.977Z,73.48
2017-02-18T11:48:01.578Z,73.38
2017-02-18T11:48:42.212Z,74.33
2017-02-18T11:49:22.798Z,73.57
2017-02-18T11:50:03.407Z,73.38
2017-02-18T11:50:44.015Z,72.81
2017-02-18T11:51:24.626Z,73.57
2017-02-18T11:52:05.261Z,72.63
2017-02-18T11:52:45.861Z,73
2017-02-18T11:53:26.507Z,73.67
2017-02-18T11:54:07.112Z,73.76
2017-02-18T11:54:47.752Z,74.24
2017-02-18T11:55:28.385Z,74.43
2017-02-18T11:56:09.181Z,73.57
2017-02-18T11:56:49.779Z,74.24
2017-02-18T11:57:30.377Z,73.96
2017-02-18T11:58:11.009Z,72.91
2017-02-18T11:58:51.597Z,72.15
2017-02-18T11:59:32.281Z,73.19
2017-02-18T12:00:12.865Z,73.76
2017-02-18T12:00:53.509Z,73.67
2017-02-18T12:01:34.154Z,73.67
2017-02-18T12:02:14.808Z,73.19
2017-02-18T12:02:55.420Z,72.06
2017-02-18T12:03:36.037Z,72.15
2017-02-18T12:04:16.650Z,72.15
2017-02-18T12:04:57.272Z,72.34
2017-02-18T12:05:37.879Z,72.44
2017-02-18T12:06:18.506Z,72.63
2017-02-18T12:06:59.175Z,73.19
2017-02-18T12:07:39.769Z,73.1
2017-02-18T12:08:20.395Z,73.38
2017-02-18T12:09:00.994Z,72.81
2017-02-18T12:09:41.597Z,72.72
2017-02-18T12:10:22.208Z,72.15
2017-02-18T12:11:02.822Z,72.53
2017-02-18T12:11:43.469Z,71.67
2017-02-18T12:12:24.093Z,71.39
2017-02-18T12:13:04.685Z,70.92
2017-02-18T12:13:45.279Z,71.67
2017-02-18T12:14:25.947Z,72.15
2017-02-18T12:15:06.543Z,71.86
2017-02-18T12:15:47.193Z,71.3
2017-02-18T12:16:27.806Z,70.92
2017-02-18T12:17:08.457Z,72.34
2017-02-18T12:17:49.101Z,72.06
2017-02-18T12:18:29.700Z,72.44
2017-02-18T12:19:10.289Z,71.86
2017-02-18T12:19:50.902Z,71.01
2017-02-18T12:20:31.509Z,71.86
2017-02-18T12:21:12.107Z,71.3
2017-02-18T12:21:52.714Z,72.15
2017-02-18T12:22:33.317Z,72.15
2017-02-18T12:23:13.902Z,70.44
2017-02-18T12:23:54.515Z,70.06
2017-02-18T12:24:35.127Z,71.11
2017-02-18T12:25:15.714Z,70.25
2017-02-18T12:25:56.309Z,69.96
2017-02-18T12:26:36.900Z,69.78
2017-02-18T12:27:17.501Z,70.06
2017-02-18T12:27:58.066Z,69.78
2017-02-18T12:28:38.679Z,69.68
2017-02-18T12:29:19.266Z,70.44
2017-02-18T12:29:59.849Z,70.63
2017-02-18T12:30:40.425Z,70.82
2017-02-18T12:31:21.019Z,70.54
2017-02-18T12:32:01.601Z,71.01
2017-02-18T12:32:42.185Z,71.39
2017-02-18T12:33:22.799Z,71.67
2017-02-18T12:34:03.388Z,71.67
2017-02-18T12:34:43.979Z,71.2
2017-02-18T12:35:24.570Z,71.39
2017-02-18T12:36:05.158Z,71.01
2017-02-18T12:36:45.732Z,71.3
2017-02-18T12:37:26.300Z,71.01
2017-02-18T12:38:06.890Z,71.01
2017-02-18T12:38:47.464Z,70.92
2017-02-18T12:39:28.068Z,70.63
2017-02-18T12:40:08.654Z,69.87
2017-02-18T12:40:49.296Z,69.96
2017-02-18T12:41:29.887Z,70.73
2017-02-18T12:42:10.464Z,70.54
2017-02-18T12:42:51.041Z,71.01
2017-02-18T12:43:31.634Z,70.92
2017-02-18T12:44:12.244Z,70.82
2017-02-18T12:44:52.984Z,70.82
2017-02-18T12:45:33.526Z,71.77
2017-02-18T12:46:14.108Z,72.06
2017-02-18T12:46:54.764Z,71.39
2017-02-18T12:47:35.361Z,71.01
2017-02-18T12:48:15.946Z,70.35
2017-02-18T12:48:56.550Z,69.49
2017-02-18T12:49:37.132Z,70.63
2017-02-18T12:50:17.715Z,71.58
2017-02-18T12:50:58.306Z,71.39
2017-02-18T12:51:38.898Z,70.25
2017-02-18T12:52:19.474Z,71.2
2017-02-18T12:53:00.104Z,70.82
2017-02-18T12:53:40.694Z,70.44
2017-02-18T12:54:21.285Z,69.21
2017-02-18T12:55:01.887Z,70.35
2017-02-18T12:55:42.465Z,69.4
2017-02-18T12:56:23.054Z,69.02
2017-02-18T12:57:03.670Z,69.11
2017-02-18T12:57:44.259Z,69.49
2017-02-18T12:58:24.874Z,68.92
2017-02-18T12:59:05.464Z,67.88
2017-02-18T12:59:46.063Z,68.44
2017-02-18T13:00:26.628Z,69.4
2017-02-18T13:01:07.228Z,69.11
2017-02-18T13:01:47.819Z,68.64
2017-02-18T13:02:28.399Z,69.4
2017-02-18T13:03:08.991Z,68.73
2017-02-18T13:03:49.591Z,68.64
2017-02-18T13:04:30.169Z,68.44
2017-02-18T13:05:10.763Z,67.4
2017-02-18T13:05:51.346Z,67.5
2017-02-18T13:06:31.929Z,67.4
2017-02-18T13:07:12.513Z,68.54
2017-02-18T13:07:53.103Z,67.4
2017-02-18T13:08:33.713Z,66.93
2017-02-18T13:09:16.027Z,67.12
2017-02-18T13:09:57.808Z,66.64
2017-02-18T13:10:40.139Z,67.02
2017-02-18T13:11:20.713Z,67.21
2017-02-18T13:12:01.317Z,67.31
2017-02-18T13:12:41.986Z,68.73
2017-02-18T13:13:22.554Z,68.26
2017-02-18T13:14:03.170Z,67.97
2017-02-18T13:14:43.782Z,67.88
2017-02-18T13:15:24.371Z,68.16
2017-02-18T13:16:04.990Z,68.54
2017-02-18T13:16:45.589Z,68.54
2017-02-18T13:17:26.192Z,69.68
2017-02-18T13:18:06.780Z,69.87
2017-02-18T13:18:47.505Z,69.49
2017-02-18T13:19:28.055Z,67.21
2017-02-18T13:20:08.645Z,67.79
2017-02-18T13:20:49.559Z,68.64
